Forside
METAR-TAF:

METAR-TAF

Lufthavne :

Rabat, Marokko

Breddekreds: 34-03N, længdekreds: 006-46W, højde: 84 m

Aktuelle vejr

Denne rapport blev lavet for 17 minutter siden, kl. 02:30 UTC
Vind 2 kt fra varierende retninger
Temperatur 21°C
Fugtighed 69%
Tryk 1017 hPa
Sigt 10 km eller mere
Brudte skyer i en højde af 2400 ft
Spredte skyer i en højde af 10000 ft

METAR: GMME 160230Z VRB02KT 9999 BKN024 SCT100 21/15 Q1017 NOSIG

Tid: 03:47 (02:47 UTC)

Vejrudsigter

Denne rapport blev lavet for 3 timer og 47 minutter siden, kl. 23:00 UTC
Foreløbig gælder fra 16 på 00 UTC til 17 på 06 UTC
Vind 8 kt fra vest
Sigt: 5000 m
Spredte skyer i en højde af 1500 ft
Spredte skyer i en højde af 2000 ft
Midlertidig
fra 16 på 12 UTC til 16 på 18 UTC
Sigt 10 km eller mere
ingen skyer under 1500m og ingen cumulonimbus
Midlertidig
fra 16 på 18 UTC til 16 på 24 UTC
Vind 2 kt fra varierende retninger

TAF: GMME 152300Z 1600/1706 28008KT 5000 SCT015 SCT020 TEMPO 1612/1618 CAVOK TEMPO 1618/1624 VRB02KT

Vejrobservationer og prognoser fra mere end 4000 lufthavne (METAR og TAF).

De gule og røde prikker repræsenterer de meteorologiske stationer.

Flyt musen over at se navnet på stationen.

Så klik over at se vejr observationer og prognoser.

At skifte det kort: Klik på de grønne knapper med et sort kors for at zoome ind; på den grønne knap med en bindestreg for at zoome ud; eller på de grønne pile for tilstødende kort.


METAR-TAF: